Terminal Aerodrome Forecast
Issued by NWS

Home | Current Version | Previous Version | Text Only | Print | Product List | Glossary On
Versions: 1 2 3 4 5 6 7 8 9 10 11 12 13
000
FTUS42 KMLB 290500 RRA
TAFTIX
TAF
KTIX 290547Z 2906/3006 20003KT P6SM SCT040
      TEMPO 2910/2912 4SM BR VV002
     FM291400 21006KT P6SM SCT020 SCT250
     FM292000 16007KT P6SM SCT040 SCT250
     FM300000 21003KT P6SM SCT040 BKN250
      AMD NOT SKED TIL 291200=

USA.gov is the U.S. government's official web portal to all federal, state and local government web resources and services.